Time;durP1;ratioP1;P1;durP2;ratioP2;P2;SDS_P1;SDS_P2;PMS_P1;PMS_P2;Temp;Humidity;BMP_temperature;BMP_pressure;BME280_temperature;BME280_humidity;BME280_pressure;Samples;Min_cycle;Max_cycle;Signal;HPM_P1;HPM_P2
2021/04/01 00:02:53;;;;;;;84.07;33.78;;;;;;;8.38;59.84;100481.94;2249989;78;33121;-61
2021/04/01 00:05:58;;;;;;;77.08;36.05;;;;;;;8.38;59.88;100478.42;2275531;78;29407;-62
2021/04/01 00:09:00;;;;;;;87.92;39.58;;;;;;;8.38;60.18;100471.27;2275654;78;27660;-61
2021/04/01 00:12:03;;;;;;;73.70;35.05;;;;;;;8.36;60.08;100471.78;2251684;78;28814;-62
2021/04/01 00:15:09;;;;;;;81.02;38.00;;;;;;;8.35;60.32;100470.08;2234365;79;31140;-62
2021/04/01 00:18:16;;;;;;;79.90;37.33;;;;;;;8.30;60.33;100464.88;2234130;79;34107;-62
2021/04/01 00:21:19;;;;;;;72.35;34.55;;;;;;;8.26;60.64;100463.28;2246287;78;28923;-62
2021/04/01 00:24:21;;;;;;;72.80;37.10;;;;;;;8.21;60.39;100458.09;2265295;78;27598;-62
2021/04/01 00:27:24;;;;;;;83.90;38.53;;;;;;;8.18;60.50;100445.33;2234818;78;28094;-62
2021/04/01 00:30:27;;;;;;;76.85;36.20;;;;;;;8.13;60.66;100441.52;2235143;78;31113;-62
2021/04/01 00:33:29;;;;;;;77.92;36.80;;;;;;;8.06;60.56;100439.53;2274680;78;32831;-62
2021/04/01 00:36:31;;;;;;;72.80;34.30;;;;;;;8.00;60.76;100445.09;2274739;78;28939;-62
2021/04/01 00:39:34;;;;;;;87.47;39.38;;;;;;;7.93;60.83;100435.58;2274833;78;27722;-62
2021/04/01 00:42:36;;;;;;;75.47;38.17;;;;;;;7.88;61.09;100438.88;2257238;78;31126;-62
2021/04/01 00:45:39;;;;;;;77.58;36.48;;;;;;;7.82;61.04;100432.41;2274710;78;31135;-62
2021/04/01 00:48:41;;;;;;;66.85;32.30;;;;;;;7.74;61.09;100423.36;2274576;78;33602;-62
2021/04/01 00:51:44;;;;;;;75.25;34.58;;;;;;;7.72;61.08;100436.76;2257275;78;28861;-62
2021/04/01 00:54:46;;;;;;;74.00;37.05;;;;;;;7.70;61.43;100431.05;2234149;79;27646;-62
2021/04/01 00:57:54;;;;;;;73.12;35.95;;;;;;;7.69;61.64;100427.53;2234127;79;29239;-63
2021/04/01 01:04:18;;;;;;;78.07;40.60;;;;;;;7.65;62.02;100424.55;2259925;78;33102;-62
2021/04/01 01:07:21;;;;;;;76.97;38.40;;;;;;;7.64;62.16;100425.48;2249309;79;28922;-63
2021/04/01 01:10:28;;;;;;;76.97;37.15;;;;;;;7.62;62.36;100417.99;2249270;78;27671;-62
2021/04/01 01:13:32;;;;;;;73.67;38.02;;;;;;;7.59;62.27;100422.12;2240842;79;28791;-62
2021/04/01 01:16:35;;;;;;;89.50;41.13;;;;;;;7.56;62.37;100426.23;2263155;77;33452;-61
2021/04/01 01:19:39;;;;;;;76.05;37.30;;;;;;;7.51;62.71;100414.84;2188215;81;34056;-62
2021/04/01 01:22:42;;;;;;;80.42;39.20;;;;;;;7.46;62.38;100408.35;2179328;79;28870;-61
2021/04/01 01:25:45;;;;;;;72.92;37.10;;;;;;;7.40;62.44;100406.77;2162694;81;27568;-63
2021/04/01 01:28:47;;;;;;;76.15;37.95;;;;;;;7.35;62.62;100406.53;2194944;81;28844;-61
2021/04/01 01:31:50;;;;;;;80.60;37.38;;;;;;;7.28;62.61;100400.55;2178952;81;31142;-62
2021/04/01 01:34:52;;;;;;;74.00;38.45;;;;;;;7.21;62.68;100395.86;2157225;82;35455;-62
2021/04/01 01:37:58;;;;;;;72.15;36.70;;;;;;;7.14;62.72;100391.20;2156693;82;28907;-62
2021/04/01 01:41:00;;;;;;;81.02;35.35;;;;;;;7.08;63.19;100390.09;2158739;81;27701;-61
2021/04/01 01:44:03;;;;;;;74.30;35.52;;;;;;;6.99;63.37;100384.62;2174945;81;29803;-61
2021/04/01 01:47:05;;;;;;;77.97;37.53;;;;;;;6.96;63.29;100379.83;2157354;82;32168;-61
2021/04/01 01:50:12;;;;;;;81.02;38.48;;;;;;;6.95;63.53;100376.79;2157176;82;33126;-61
2021/04/01 01:53:16;;;;;;;77.90;38.20;;;;;;;6.94;63.59;100377.70;2157665;81;29405;-61
2021/04/01 01:56:26;;;;;;;86.95;40.45;;;;;;;6.95;63.64;100372.80;2157340;82;27717;-61
2021/04/01 01:59:29;;;;;;;79.75;38.65;;;;;;;6.97;63.55;100367.81;2163201;81;28944;-62
2021/04/01 02:02:32;;;;;;;86.57;40.75;;;;;;;6.98;63.46;100367.34;2134239;82;31235;-62
2021/04/01 02:05:35;;;;;;;79.62;40.70;;;;;;;6.97;63.57;100361.59;2157292;81;33114;-62
2021/04/01 02:08:38;;;;;;;95.12;40.50;;;;;;;6.97;63.48;100359.83;2157236;82;28922;-62
2021/04/01 02:11:40;;;;;;;83.37;41.45;;;;;;;6.95;63.45;100353.67;2165668;81;27718;-61
2021/04/01 02:14:44;;;;;;;84.10;40.23;;;;;;;6.92;63.41;100355.10;2194939;81;28835;-62
2021/04/01 02:17:46;;;;;;;89.62;39.85;;;;;;;6.89;63.45;100354.34;2195047;81;31129;-61
2021/04/01 02:20:51;;;;;;;84.58;39.90;;;;;;;6.85;63.49;100352.25;2172940;81;33545;-61
2021/04/01 02:23:53;;;;;;;91.15;42.38;;;;;;;6.79;63.46;100353.30;2164424;81;28847;-62
2021/04/01 02:26:56;;;;;;;92.53;39.95;;;;;;;6.75;63.45;100353.46;2195201;81;27703;-61
2021/04/01 02:30:00;;;;;;;78.10;40.08;;;;;;;6.68;63.56;100348.36;2184947;81;29376;-61
2021/04/01 02:33:04;;;;;;;75.90;38.88;;;;;;;6.62;63.69;100355.20;2172473;79;31134;-61
2021/04/01 02:36:07;;;;;;;87.85;36.93;;;;;;;6.57;63.93;100350.48;2188389;81;33979;-61
2021/04/01 02:39:10;;;;;;;85.30;35.08;;;;;;;6.51;63.90;100350.22;2186316;81;28866;-61
2021/04/01 02:42:12;;;;;;;77.42;37.17;;;;;;;6.49;64.03;100348.54;2167101;81;27728;-62
2021/04/01 02:45:16;;;;;;;85.92;37.67;;;;;;;6.49;64.45;100354.72;2191718;81;28839;-61
2021/04/01 02:48:18;;;;;;;74.03;36.30;;;;;;;6.48;64.39;100347.65;2194329;81;31141;-61
2021/04/01 02:51:21;;;;;;;70.50;37.85;;;;;;;6.50;64.50;100343.62;2168378;81;33134;-61
2021/04/01 02:54:23;;;;;;;81.57;37.55;;;;;;;6.48;64.52;100341.00;2156878;82;28960;-61
2021/04/01 02:57:25;;;;;;;74.20;38.38;;;;;;;6.47;64.62;100335.26;2174018;81;27724;-61
2021/04/01 03:00:30;;;;;;;80.75;36.93;;;;;;;6.45;64.62;100334.47;2194668;81;29986;-62
2021/04/01 03:06:46;;;;;;;73.57;36.77;;;;;;;6.46;64.59;100330.00;2251623;77;28588;-62
2021/04/01 03:09:48;;;;;;;75.70;40.52;;;;;;;6.39;64.74;100333.32;2186884;80;27719;-61
2021/04/01 03:12:50;;;;;;;70.10;38.13;;;;;;;6.36;64.64;100333.41;2170079;81;29224;-61
2021/04/01 03:15:52;;;;;;;80.70;39.33;;;;;;;6.33;64.78;100329.52;2217392;80;31672;-61
2021/04/01 03:18:55;;;;;;;77.55;40.10;;;;;;;6.29;64.97;100331.41;2144998;81;34048;-61
2021/04/01 03:21:57;;;;;;;93.00;41.20;;;;;;;6.25;65.09;100324.91;2178998;81;29506;-61
2021/04/01 03:24:59;;;;;;;74.95;36.77;;;;;;;6.18;65.08;100322.42;2149694;81;27618;-61
2021/04/01 03:28:02;;;;;;;76.92;37.42;;;;;;;6.17;65.06;100319.83;2216679;80;28862;-62
2021/04/01 03:31:04;;;;;;;72.37;37.25;;;;;;;6.17;65.18;100315.84;2176817;81;32141;-62
2021/04/01 03:34:06;;;;;;;75.78;36.55;;;;;;;6.19;65.17;100312.20;2207034;80;35385;-61
2021/04/01 03:37:08;;;;;;;81.50;39.30;;;;;;;6.21;65.33;100318.34;2176852;81;28854;-61
2021/04/01 03:40:12;;;;;;;78.12;39.20;;;;;;;6.22;65.30;100314.77;2216921;80;27652;-61
2021/04/01 03:43:15;;;;;;;79.37;38.08;;;;;;;6.24;65.25;100310.72;2169114;81;29643;-62
2021/04/01 03:46:17;;;;;;;82.85;38.20;;;;;;;6.22;65.21;100306.79;2177701;81;32036;-61
2021/04/01 03:49:19;;;;;;;84.50;39.63;;;;;;;6.20;65.06;100304.64;2139601;83;32967;-61
2021/04/01 03:52:21;;;;;;;77.78;38.30;;;;;;;6.17;65.22;100304.72;2178289;81;30194;-61
2021/04/01 03:58:46;;;;;;;80.97;39.75;;;;;;;6.12;65.35;100305.34;2217595;80;29299;-62
2021/04/01 04:05:02;;;;;;;74.10;38.15;;;;;;;6.01;65.33;100292.83;2198007;80;33160;-61
2021/04/01 04:17:23;;;;;;;74.42;35.15;;;;;;;5.80;65.45;100297.83;2177916;81;31742;-61
2021/04/01 04:20:26;;;;;;;82.65;37.05;;;;;;;5.77;65.55;100300.14;2140648;81;33662;-62
2021/04/01 04:23:28;;;;;;;80.62;39.53;;;;;;;5.76;65.71;100291.75;2212645;80;28850;-61
2021/04/01 04:26:31;;;;;;;75.52;40.05;;;;;;;5.78;65.82;100295.23;2176188;81;27660;-61
2021/04/01 04:29:33;;;;;;;86.92;42.83;;;;;;;5.78;66.06;100295.71;2216781;80;28840;-61
2021/04/01 04:32:36;;;;;;;97.00;47.58;;;;;;;5.80;66.10;100294.32;2146270;81;31143;-61
2021/04/01 04:35:38;;;;;;;87.30;42.73;;;;;;;5.80;66.24;100292.52;2177771;81;33107;-62
2021/04/01 04:38:40;;;;;;;99.95;44.60;;;;;;;5.81;66.28;100285.43;2172558;80;29816;-61
2021/04/01 04:41:43;;;;;;;94.77;44.08;;;;;;;5.80;66.25;100291.66;2165348;81;27676;-62
2021/04/01 04:44:45;;;;;;;87.47;42.93;;;;;;;5.79;66.40;100286.82;2171925;81;28821;-60
2021/04/01 04:47:48;;;;;;;88.30;42.95;;;;;;;5.80;66.20;100285.88;2172831;81;31139;-62
2021/04/01 04:50:50;;;;;;;84.80;41.35;;;;;;;5.81;66.25;100279.64;2197678;80;33124;-61
2021/04/01 04:53:53;;;;;;;79.17;40.92;;;;;;;5.84;66.25;100273.38;2172316;80;28869;-61
2021/04/01 04:56:59;;;;;;;78.85;38.73;;;;;;;5.86;66.23;100280.86;2178121;81;27799;-61
2021/04/01 05:06:56;;;;;;;93.70;44.40;;;;;;;6.10;66.34;100271.72;2218794;80;33100;-61
2021/04/01 05:09:58;;;;;;;88.22;44.27;;;;;;;6.21;66.46;100271.80;2220888;80;29398;-62
2021/04/01 05:13:07;;;;;;;78.72;41.58;;;;;;;6.34;66.59;100270.06;2186425;80;27642;-62
2021/04/01 05:16:08;;;;;;;89.17;43.92;;;;;;;6.48;66.65;100263.82;2181923;81;28931;-62
2021/04/01 05:19:11;;;;;;;83.92;42.73;;;;;;;6.62;66.59;100263.36;2142709;83;31202;-61
2021/04/01 05:22:31;;;;;;;81.45;43.40;;;;;;;6.77;66.61;100269.09;2201378;80;33549;-62
2021/04/01 05:25:28;;;;;;;80.67;43.58;;;;;;;6.91;66.59;100256.16;2172854;81;29816;-61
2021/04/01 05:28:34;;;;;;;82.73;43.17;;;;;;;7.07;66.61;100254.28;2216278;80;27772;-61
2021/04/01 05:31:38;;;;;;;90.53;44.18;;;;;;;7.21;66.58;100256.45;2242160;78;28886;-61
2021/04/01 05:34:40;;;;;;;85.05;42.43;;;;;;;7.36;66.58;100257.22;2220663;80;31068;-62
2021/04/01 05:37:42;;;;;;;82.00;41.00;;;;;;;7.52;66.63;100254.87;2180019;81;34086;-61
2021/04/01 05:40:44;;;;;;;87.53;41.83;;;;;;;7.74;66.65;100256.69;2217199;80;28861;-62
2021/04/01 05:43:51;;;;;;;90.35;42.98;;;;;;;7.99;66.67;100253.93;2174565;81;27644;-61
2021/04/01 06:06:13;;;;;;;93.92;44.23;;;;;;;10.46;66.13;100232.34;2217319;79;31245;-62
2021/04/01 06:09:29;;;;;;;95.12;48.33;;;;;;;10.97;65.55;100239.11;2192123;80;33138;-61
2021/04/01 06:12:34;;;;;;;;;;;;;;;11.36;65.09;100236.60;2202997;80;27804;-61
2021/04/01 06:15:37;;;;;;;67.00;29.67;;;;;;;11.68;64.41;100232.63;2181654;81;27722;-62
2021/04/01 06:18:42;;;;;;;72.27;37.93;;;;;;;11.94;63.95;100228.09;2181363;81;28884;-62
2021/04/01 06:21:49;;;;;;;81.82;38.85;;;;;;;12.19;63.44;100225.37;2155005;81;31333;-62
2021/04/01 06:24:53;;;;;;;74.75;39.18;;;;;;;12.45;63.37;100227.42;2181709;81;33233;-61
2021/04/01 06:27:57;;;;;;;90.67;41.43;;;;;;;12.78;62.92;100223.30;2181964;81;29752;-61
2021/04/01 06:31:00;;;;;;;61.15;30.23;;;;;;;13.17;62.58;100219.99;2182814;80;27666;-61
2021/04/01 06:34:04;;;;;;;92.02;43.42;;;;;;;13.49;62.10;100218.48;2181600;81;28888;-61
2021/04/01 06:37:33;;;;;;;85.00;41.23;;;;;;;13.73;61.72;100217.89;2181708;81;31214;-62
2021/04/01 06:40:24;;;;;;;74.77;38.67;;;;;;;14.01;61.25;100213.87;2196741;80;33566;-62
2021/04/01 06:43:56;;;;;;;76.80;37.28;;;;;;;14.37;60.83;100215.97;2191547;80;28964;-62
2021/04/01 06:47:10;;;;;;;70.85;36.28;;;;;;;14.71;60.30;100208.33;2181423;81;27672;-62
2021/04/01 06:50:22;;;;;;;63.90;32.08;;;;;;;14.98;59.66;100215.94;2196719;80;28807;-62
2021/04/01 06:53:33;;;;;;;58.15;31.52;;;;;;;15.13;59.20;100215.36;2220138;80;32372;-62
2021/04/01 07:06:39;;;;;;;59.60;32.85;;;;;;;15.87;56.99;100204.72;2339883;76;33328;-62
2021/04/01 07:12:48;;;;;;;61.40;30.65;;;;;;;16.21;56.06;100205.39;2303483;77;29707;-63
2021/04/01 07:15:55;;;;;;;61.83;31.05;;;;;;;16.26;55.39;100199.16;2296183;77;31114;-63
2021/04/01 07:36:02;;;;;;;55.88;29.55;;;;;;;18.34;52.04;100194.52;2178776;81;33067;-62
2021/04/01 07:49:02;;;;;;;59.30;28.60;;;;;;;18.73;49.97;100181.75;2192760;80;31140;-65
2021/04/01 07:52:06;;;;;;;47.25;27.52;;;;;;;19.01;50.13;100179.37;2177930;81;33281;-62
2021/04/01 08:04:58;;;;;;;41.02;22.48;;;;;;;20.91;48.01;100175.41;2217414;80;32118;-64
2021/04/01 08:08:06;;;;;;;33.13;19.92;;;;;;;21.49;47.33;100172.16;2216340;80;33107;-64
2021/04/01 08:11:08;;;;;;;35.98;20.17;;;;;;;21.81;45.53;100161.32;2216783;80;28851;-63
2021/04/01 08:14:20;;;;;;;50.80;23.05;;;;;;;22.00;44.75;100161.69;2181257;80;27719;-64
2021/04/01 08:17:26;;;;;;;42.30;18.85;;;;;;;21.90;43.61;100163.64;2188174;80;28813;-64
2021/04/01 08:20:32;;;;;;;29.75;17.85;;;;;;;21.84;43.42;100163.23;2218379;78;31183;-64
2021/04/01 08:23:38;;;;;;;30.17;17.62;;;;;;;21.75;43.04;100163.28;2220983;80;33725;-64
2021/04/01 08:26:49;;;;;;;;;;;;;;;21.69;43.31;100157.42;2223421;80;28856;-63
2021/04/01 08:36:22;;;;;;;30.92;17.65;;;;;;;21.66;41.69;100150.06;2209567;80;32800;-64
2021/04/01 08:39:24;;;;;;;29.52;18.20;;;;;;;21.65;41.45;100146.98;2182432;80;33944;-63
2021/04/01 08:42:56;;;;;;;30.37;18.02;;;;;;;21.66;41.61;100144.61;2211231;80;28869;-63
2021/04/01 08:46:33;;;;;;;33.08;19.15;;;;;;;21.74;41.51;100144.72;2201140;78;27751;-67
2021/04/01 08:50:01;;;;;;;37.00;19.85;;;;;;;21.85;41.36;100145.86;2155590;82;28831;-65
2021/04/01 08:53:46;;;;;;;34.90;19.55;;;;;;;21.92;40.73;100135.70;2322626;74;27806;-65
2021/04/01 08:56:58;;;;;;;32.30;18.02;;;;;;;21.92;40.73;100135.70;2269081;75;27677;-64
2021/04/01 09:00:15;;;;;;;38.35;18.42;;;;;;;21.81;40.29;100137.62;2273081;76;28937;-65
2021/04/01 09:03:22;;;;;;;27.45;17.92;;;;;;;21.74;40.42;100133.81;2282217;77;31152;-64
2021/04/01 09:06:22;;;;;;;;;;;;;;;21.70;40.38;100135.97;2274491;76;33094;-68
2021/04/01 09:09:30;;;;;;;31.77;19.73;;;;;;;21.66;40.08;100133.70;2279494;75;28802;-64
2021/04/01 09:12:41;;;;;;;29.30;18.15;;;;;;;21.54;39.62;100127.56;2289318;76;27828;-65
2021/04/01 09:15:53;;;;;;;31.27;19.50;;;;;;;21.51;39.94;100123.80;2281842;75;28810;-62
2021/04/01 09:19:03;;;;;;;35.13;19.30;;;;;;;21.53;40.17;100123.98;2280629;75;31145;-62
2021/04/01 09:22:23;;;;;;;27.58;18.12;;;;;;;21.57;39.96;100117.72;2282069;75;33112;-64
2021/04/01 09:25:38;;;;;;;31.90;17.95;;;;;;;21.57;39.41;100119.60;2276328;77;28780;-64
2021/04/01 09:28:44;;;;;;;34.20;19.73;;;;;;;21.53;39.12;100116.30;2294427;76;27715;-63
2021/04/01 09:31:54;;;;;;;36.28;19.07;;;;;;;21.52;39.03;100115.45;2277438;75;29881;-63
2021/04/01 09:34:59;;;;;;;30.43;18.90;;;;;;;21.55;39.08;100110.20;2277713;76;30878;-63
2021/04/01 09:38:08;;;;;;;31.95;17.82;;;;;;;21.59;38.79;100113.50;2279801;75;33114;-65
2021/04/01 09:41:30;;;;;;;27.25;17.10;;;;;;;21.59;39.07;100112.98;2265986;75;28852;-65
2021/04/01 09:44:33;;;;;;;33.78;18.37;;;;;;;21.68;38.99;100109.88;2277634;77;27550;-66
2021/04/01 09:47:43;;;;;;;29.90;17.45;;;;;;;21.75;38.82;100107.39;2280477;76;28803;-66
2021/04/01 09:50:47;;;;;;;30.08;18.45;;;;;;;21.83;38.51;100102.03;2266047;77;31589;-65
2021/04/01 09:53:54;;;;;;;36.83;17.02;;;;;;;21.94;38.82;100094.98;2284716;75;33930;-66
2021/04/01 09:56:59;;;;;;;33.70;18.95;;;;;;;22.06;38.34;100093.38;2282049;75;28857;-63
2021/04/01 10:00:15;;;;;;;;;;;;;;;22.14;38.32;100090.73;2293270;75;27593;-63
2021/04/01 10:03:23;;;;;;;27.82;17.10;;;;;;;22.24;38.17;100094.22;2199773;78;28806;-71
2021/04/01 10:06:45;;;;;;;28.12;18.02;;;;;;;22.35;37.77;100096.34;2204150;78;31196;-70
2021/04/01 10:09:52;;;;;;;31.05;18.65;;;;;;;22.43;37.56;100091.84;2209788;78;34386;-66
2021/04/01 10:12:56;;;;;;;29.10;18.37;;;;;;;22.44;36.75;100098.17;2207685;78;29998;-67
2021/04/01 10:15:59;;;;;;;35.88;19.35;;;;;;;22.45;36.65;100092.54;2194234;80;27737;-68
2021/04/01 10:19:03;;;;;;;30.85;17.77;;;;;;;22.45;36.74;100088.44;2205512;79;28815;-66
2021/04/01 10:22:06;;;;;;;38.13;20.27;;;;;;;22.51;36.90;100085.58;2216663;79;31140;-66
2021/04/01 10:29:08;;;;;;;37.90;19.55;;;;;;;22.64;36.58;100082.96;2326089;75;27737;-66
2021/04/01 10:32:07;;;;;;;32.20;19.65;;;;;;;22.63;36.50;100088.91;2277166;76;27610;-66
2021/04/01 10:35:11;;;;;;;39.48;19.90;;;;;;;22.58;36.20;100087.20;2251732;76;29009;-66
2021/04/01 10:38:15;;;;;;;35.48;20.02;;;;;;;22.57;35.50;100080.86;2280782;77;31077;-66
2021/04/01 10:41:18;;;;;;;29.27;19.92;;;;;;;22.46;35.73;100080.61;2289301;77;33764;-67
2021/04/01 10:44:23;;;;;;;36.83;19.67;;;;;;;22.45;36.00;100074.80;2280822;77;28344;-68
2021/04/01 10:47:52;;;;;;;33.90;20.05;;;;;;;22.46;35.71;100069.69;2286996;75;27685;-66
2021/04/01 10:50:57;;;;;;;34.48;19.15;;;;;;;22.44;35.45;100063.52;2280074;77;28817;-66
2021/04/01 10:53:58;;;;;;;;;;;;;;;22.41;35.74;100058.88;2292690;75;31116;-66
2021/04/01 10:57:02;;;;;;;32.93;18.27;;;;;;;22.43;35.84;100060.97;2286403;76;33064;-69
2021/04/01 11:00:16;;;;;;;33.40;18.85;;;;;;;22.47;35.64;100056.91;2285237;77;28908;-65
2021/04/01 11:03:23;;;;;;;34.63;19.90;;;;;;;22.52;35.78;100049.08;2286834;76;27574;-66
2021/04/01 11:06:26;;;;;;;38.40;20.52;;;;;;;22.58;35.76;100048.97;2280693;76;28803;-65
2021/04/01 11:09:32;;;;;;;86.20;56.90;;;;;;;22.65;35.65;100053.27;2278956;76;31120;-65
2021/04/01 11:12:35;;;;;;;34.53;21.42;;;;;;;22.69;35.86;100045.08;2288712;76;33093;-67
2021/04/01 11:15:40;;;;;;;31.55;19.00;;;;;;;22.77;35.97;100043.78;2263841;78;28891;-66
2021/04/01 11:18:48;;;;;;;32.50;19.15;;;;;;;22.83;35.70;100048.61;2264636;78;27779;-65
2021/04/01 11:21:51;;;;;;;31.10;18.45;;;;;;;22.91;35.50;100048.63;2263924;78;28795;-66
2021/04/01 11:24:54;;;;;;;34.20;19.12;;;;;;;22.93;35.18;100051.71;2264637;78;31168;-68
2021/04/01 11:27:57;;;;;;;41.20;21.97;;;;;;;22.96;34.69;100051.39;2264475;77;33398;-66
2021/04/01 11:30:59;;;;;;;31.12;18.00;;;;;;;22.90;34.86;100048.28;2264885;78;28942;-66
2021/04/01 11:34:04;;;;;;;34.18;18.48;;;;;;;22.90;35.23;100047.44;2280223;77;27618;-66
2021/04/01 11:37:06;;;;;;;35.45;20.72;;;;;;;22.98;35.19;100054.30;2190628;81;28910;-65
2021/04/01 11:40:10;;;;;;;38.00;20.02;;;;;;;22.99;34.62;100050.55;2189913;81;31127;-67
2021/04/01 11:43:12;;;;;;;27.02;18.37;;;;;;;23.02;34.88;100052.08;2190178;81;34933;-65
2021/04/01 11:46:19;;;;;;;31.35;18.85;;;;;;;23.10;34.67;100048.53;2170291;80;28837;-65
2021/04/01 11:49:22;;;;;;;29.23;17.95;;;;;;;23.16;34.87;100046.52;2170573;79;27694;-65
2021/04/01 11:52:25;;;;;;;30.35;18.45;;;;;;;23.23;34.89;100046.25;2142791;82;29673;-66
2021/04/01 11:55:30;;;;;;;31.95;19.20;;;;;;;23.23;34.78;100040.78;2170239;82;31122;-66
2021/04/01 11:58:32;;;;;;;30.25;18.67;;;;;;;23.23;34.81;100046.25;2170466;82;33565;-65
2021/04/01 12:01:37;;;;;;;31.37;20.82;;;;;;;23.21;34.72;100052.39;2170163;82;28856;-65
2021/04/01 12:04:45;;;;;;;34.53;19.85;;;;;;;23.19;34.49;100041.57;2170305;82;27737;-65
2021/04/01 12:07:45;;;;;;;34.33;19.05;;;;;;;23.15;34.44;100036.61;2170227;80;28822;-67
2021/04/01 12:10:57;;;;;;;31.45;19.23;;;;;;;23.12;34.02;100032.34;2169345;82;32203;-64
2021/04/01 12:14:12;;;;;;;33.05;19.82;;;;;;;23.11;34.37;100031.11;2170453;82;33111;-64
2021/04/01 12:17:14;;;;;;;31.80;19.95;;;;;;;23.14;34.36;100033.53;2194388;79;28860;-65
2021/04/01 12:20:17;;;;;;;36.13;20.35;;;;;;;23.21;34.18;100035.47;2208545;80;27688;-65
2021/04/01 12:23:29;;;;;;;34.80;20.97;;;;;;;23.28;32.80;100035.66;2208649;80;28924;-66
2021/04/01 12:26:58;;;;;;;40.23;21.17;;;;;;;23.26;33.02;100031.39;2210847;79;31157;-66
2021/04/01 12:30:16;;;;;;;36.23;21.57;;;;;;;23.24;32.40;100035.67;2258459;77;27631;-65
2021/04/01 12:33:26;;;;;;;42.83;20.20;;;;;;;23.16;32.40;100039.69;2221823;80;28140;-65
2021/04/01 12:36:42;;;;;;;37.35;22.15;;;;;;;23.11;30.88;100047.02;2256466;78;29709;-63
2021/04/01 12:39:49;;;;;;;38.23;20.77;;;;;;;22.99;32.26;100052.44;2146701;81;27764;-65
2021/04/01 12:43:09;;;;;;;32.75;22.32;;;;;;;22.82;32.32;100043.28;2138689;81;33047;-65
2021/04/01 12:46:12;;;;;;;;;;;;;;;22.67;32.42;100051.24;2100852;84;29393;-64
2021/04/01 12:49:17;;;;;;;38.67;23.18;;;;;;;22.48;32.04;100050.93;2096989;84;28340;-64
2021/04/01 12:52:22;;;;;;;40.05;23.22;;;;;;;22.29;32.33;100049.59;2138887;83;28813;-66
2021/04/01 12:55:46;;;;;;;34.63;21.70;;;;;;;22.10;32.56;100041.58;2099400;82;32507;-66
2021/04/01 12:59:09;;;;;;;43.13;25.25;;;;;;;22.04;32.94;100051.26;2257303;78;28052;-64
2021/04/01 13:02:24;;;;;;;38.53;24.18;;;;;;;21.82;32.94;100049.87;2228082;79;27649;-65
2021/04/01 13:05:27;;;;;;;43.55;23.60;;;;;;;21.57;32.47;100055.55;2200210;79;29001;-64
2021/04/01 13:11:37;;;;;;;42.08;24.07;;;;;;;21.18;33.50;100053.92;2188907;81;33120;-64
2021/04/01 13:14:41;;;;;;;39.83;21.85;;;;;;;21.00;33.53;100060.65;2188807;81;29432;-65
2021/04/01 13:17:47;;;;;;;33.92;22.05;;;;;;;20.87;33.79;100062.34;2218636;79;27784;-65
2021/04/01 13:20:51;;;;;;;37.95;22.80;;;;;;;20.72;34.08;100063.31;2226759;79;28805;-65
2021/04/01 13:24:02;;;;;;;44.05;24.25;;;;;;;20.58;33.88;100065.98;2227671;79;32112;-66
2021/04/01 13:26:58;;;;;;;36.10;23.15;;;;;;;20.42;34.02;100075.62;2225567;79;33135;-67
2021/04/01 13:30:07;;;;;;;42.10;21.62;;;;;;;20.28;34.36;100081.00;2227526;79;28849;-65
2021/04/01 13:33:16;;;;;;;36.75;20.72;;;;;;;20.21;34.56;100073.56;2227878;79;27628;-65
2021/04/01 13:36:22;;;;;;;34.08;20.02;;;;;;;20.19;34.50;100071.00;2227416;79;28830;-65
2021/04/01 13:42:47;;;;;;;37.05;21.20;;;;;;;20.18;34.42;100070.16;2298330;77;27674;-66
2021/04/01 13:45:50;;;;;;;38.65;20.55;;;;;;;20.10;34.47;100074.08;2180852;81;27680;-66
2021/04/01 13:48:53;;;;;;;38.50;21.73;;;;;;;20.08;34.60;100073.88;2217508;80;29770;-66
2021/04/01 14:12:02;;;;;;;40.75;21.55;;;;;;;19.96;35.74;100070.44;2342634;76;27627;-65
2021/04/01 14:15:08;;;;;;;38.65;21.35;;;;;;;19.87;35.91;100066.20;2306640;77;27706;-65
2021/04/01 14:18:11;;;;;;;38.45;20.75;;;;;;;19.84;35.84;100058.80;2306270;77;27709;-65
2021/04/01 14:21:21;;;;;;;44.75;22.98;;;;;;;19.77;36.19;100058.52;2306341;77;32105;-65
2021/04/01 14:27:37;;;;;;;38.67;21.57;;;;;;;19.76;36.18;100052.72;2306466;77;28542;-65
2021/04/01 14:30:36;;;;;;;43.23;22.85;;;;;;;19.75;36.19;100052.36;2289388;77;27654;-65
2021/04/01 14:33:44;;;;;;;41.35;21.87;;;;;;;19.79;36.39;100047.49;2264698;78;29849;-66
2021/04/01 14:36:46;;;;;;;39.95;21.30;;;;;;;19.83;36.50;100033.98;2282329;77;31127;-65
2021/04/01 14:39:52;;;;;;;30.82;18.92;;;;;;;19.93;36.57;100019.06;2262790;77;33116;-64
2021/04/01 14:42:55;;;;;;;;;;;;;;;19.98;36.07;100007.27;2266846;78;28668;-65
2021/04/01 14:45:58;;;;;;;36.70;19.00;;;;;;;19.92;35.92;99996.47;2264629;77;27673;-65
2021/04/01 14:49:04;;;;;;;36.55;18.95;;;;;;;19.83;36.13;99994.08;2264335;78;28796;-65
2021/04/01 14:52:07;;;;;;;31.50;16.90;;;;;;;19.74;35.89;100001.23;2264777;78;31132;-64
2021/04/01 14:55:12;;;;;;;;;;;;;;;19.70;36.09;100003.88;2267337;78;33292;-66
2021/04/01 14:58:19;;;;;;;25.88;14.13;;;;;;;19.68;36.59;100004.52;2298939;77;29014;-65
2021/04/01 15:01:24;;;;;;;24.72;13.83;;;;;;;19.59;36.58;99995.88;2310297;77;27693;-66
2021/04/01 15:04:27;;;;;;;;;;;;;;;19.54;36.88;99993.55;2313234;77;28696;-64
2021/04/01 15:07:30;;;;;;;24.30;11.88;;;;;;;19.52;37.08;99998.78;2309272;77;31114;-65
2021/04/01 15:10:33;;;;;;;15.00;8.48;;;;;;;19.49;37.39;100002.66;2266267;78;33067;-65
2021/04/01 15:13:39;;;;;;;20.65;9.45;;;;;;;19.49;37.26;100012.64;2293566;76;28919;-65
2021/04/01 15:16:42;;;;;;;16.75;7.87;;;;;;;19.47;37.42;100021.43;2302489;77;27709;-65
2021/04/01 15:19:45;;;;;;;15.53;7.00;;;;;;;19.48;37.44;100028.59;2302067;77;28866;-65
2021/04/01 15:22:50;;;;;;;16.97;7.78;;;;;;;19.39;37.49;100037.08;2216857;79;31014;-65
2021/04/01 15:25:53;;;;;;;14.00;7.47;;;;;;;19.32;37.77;100045.44;2187876;81;34354;-66
2021/04/01 15:28:56;;;;;;;17.60;8.05;;;;;;;19.24;37.85;100046.98;2223048;78;28857;-65
2021/04/01 15:31:58;;;;;;;19.10;8.03;;;;;;;19.13;37.81;100036.24;2223329;80;27763;-66
2021/04/01 15:35:01;;;;;;;19.87;8.40;;;;;;;19.07;37.96;100044.45;2223400;80;29831;-65
2021/04/01 15:38:04;;;;;;;17.98;7.97;;;;;;;19.02;38.24;100046.70;2223256;80;31171;-65
2021/04/01 15:41:06;;;;;;;21.15;8.20;;;;;;;18.94;38.47;100036.53;2223273;80;33122;-66
2021/04/01 15:44:09;;;;;;;16.93;7.70;;;;;;;18.96;38.60;100048.13;2225204;78;28931;-67
2021/04/01 15:47:12;;;;;;;28.15;9.50;;;;;;;18.98;38.95;100052.92;2263404;78;27601;-64
2021/04/01 15:50:15;;;;;;;17.73;7.80;;;;;;;19.01;38.85;100050.41;2225147;78;29774;-64
2021/04/01 15:53:18;;;;;;;23.77;9.30;;;;;;;18.98;39.07;100046.12;2223231;80;31147;-66
2021/04/01 15:56:21;;;;;;;22.35;9.35;;;;;;;18.97;39.06;100047.13;2223148;80;33136;-65
2021/04/01 15:59:23;;;;;;;14.23;8.33;;;;;;;18.93;39.22;100047.52;2223280;80;28868;-66
2021/04/01 16:02:25;;;;;;;20.85;8.03;;;;;;;18.83;39.09;100048.82;2223461;80;28170;-66
2021/04/01 16:05:27;;;;;;;23.47;9.28;;;;;;;18.73;39.28;100057.39;2188696;81;28806;-66
2021/04/01 16:08:30;;;;;;;16.40;7.92;;;;;;;18.58;39.47;100055.04;2188735;79;31611;-66
2021/04/01 16:11:32;;;;;;;24.55;8.88;;;;;;;18.44;39.62;100058.98;2197408;80;33097;-66
2021/04/01 16:14:34;;;;;;;19.25;8.68;;;;;;;18.28;39.70;100068.08;2188034;81;28837;-65
2021/04/01 16:17:37;;;;;;;49.48;9.18;;;;;;;18.09;39.97;100090.46;2222618;80;27771;-66
2021/04/01 16:20:41;;;;;;;13.55;6.33;;;;;;;17.90;41.31;100109.11;2222663;80;29076;-64
2021/04/01 16:23:45;;;;;;;19.73;6.65;;;;;;;17.66;43.63;100115.20;2222284;80;27697;-65
2021/04/01 16:26:47;;;;;;;13.38;6.10;;;;;;;17.34;44.09;100119.58;2222185;80;33976;-65
2021/04/01 16:29:51;;;;;;;15.88;6.50;;;;;;;16.79;45.05;100122.97;2221942;80;27966;-65
2021/04/01 16:32:55;;;;;;;12.20;4.95;;;;;;;16.79;45.05;100122.97;2222607;80;27695;-64